Portada
METAR-TAF:

METAR-TAF

Aeroports :

Baie-Comeau, Quebec, Canadà

latitud: 49-08N, longitud: 068-12W, altitud: 21 m

Observació

L'informe es va fer fa 1 hora i 4 minuts, a les 03:00 UTC
Vent 5 kt del Nord
Temperatura 11°C
Humitat 62%
Pressió 1009 hPa
Visibilitat: 14.5 km
Cel clar

METAR: CYBC 060300Z AUTO 36005KT 9SM CLR 11/04 A2980 RMK SLP092

Hora: 00:04 (04:04 UTC)

Pronòstic

L'informe es va fer fa 2 hores i 26 minuts, a les 01:38 UTC
Pronòstic vàlid del 06 a les 02 UTC al 06 a les 14 UTC
Vent 5 kt del Nord/Nord-Oest
Visibilitat: 10 km
Escasses núvols a una alçada de 8000 ft
A partir de les 06 a les 1200 UTC
Vent 8 kt del Est/Nord-Est
Visibilitat: 10 km
Cel ennuvolat a una alçada de 10000 ft

TAF: CYBC 060138Z 0602/0614 33005KT P6SM FEW080 FM061200 06008KT P6SM BKN100 RMK FCST BASED ON AUTO OBS. NXT FCST BY 060800Z

Observacions i pronòstics meteorològics de més de 4000 aeroports (METAR i TAF).

Les estacions disponibles són els punts grocs i vermells al mapa.

Posi el ratolí al punt desitjat per veure el nom de l'estació.

Feu clic per veure les observacions i els pronòstics meteorològics.

Per canviar el mapa: feu clic els botons verds amb una creu de color negre per apropar; al botó verd amb un guió per allunyar la imatge; o en les fletxes verdes per a mapes adjacents.


METAR-TAF: